createdAt,value
2022-12-04T00:01:26.547Z,68.90
2022-12-04T00:03:56.499Z,65.10
2022-12-04T00:06:24.830Z,60.60
2022-12-04T00:08:53.428Z,63.10
2022-12-04T00:11:24.471Z,67.60
2022-12-04T00:13:52.702Z,66.70
2022-12-04T00:16:23.494Z,64.60
2022-12-04T00:18:52.161Z,65.60
2022-12-04T00:21:21.552Z,59.40
2022-12-04T00:23:49.622Z,63.50
2022-12-04T00:26:20.167Z,63.50
2022-12-04T00:28:49.439Z,69.80
2022-12-04T00:31:23.038Z,56.80
2022-12-04T00:33:51.198Z,69.80
2022-12-04T00:36:21.243Z,62.20
2022-12-04T00:38:49.177Z,68.60
2022-12-04T00:41:19.750Z,62.40
2022-12-04T00:43:47.620Z,70.50
2022-12-04T00:46:15.753Z,60.40
2022-12-04T00:48:44.490Z,64.10
2022-12-04T00:51:18.206Z,62.10
2022-12-04T00:53:47.010Z,66.10
2022-12-04T00:56:18.751Z,63.00
2022-12-04T00:58:47.325Z,56.90
2022-12-04T01:01:41.399Z,63.90
2022-12-04T01:04:10.326Z,64.40
2022-12-04T01:06:38.493Z,61.10
2022-12-04T01:09:06.692Z,59.80
2022-12-04T01:11:34.755Z,60.50
2022-12-04T01:14:03.300Z,65.40
2022-12-04T01:16:37.522Z,62.80
2022-12-04T01:19:09.023Z,65.30
2022-12-04T01:21:38.962Z,63.20
2022-12-04T01:24:08.514Z,65.30
2022-12-04T01:26:36.678Z,65.70
2022-12-04T01:29:05.140Z,71.10
2022-12-04T01:31:32.956Z,70.20
2022-12-04T01:34:00.792Z,60.20
2022-12-04T01:36:29.071Z,65.50
2022-12-04T01:38:56.895Z,60.50
2022-12-04T01:41:28.319Z,59.00
2022-12-04T01:44:19.021Z,62.80
2022-12-04T01:46:51.770Z,68.30
2022-12-04T01:49:25.795Z,63.20
2022-12-04T01:51:59.118Z,64.80
2022-12-04T01:54:32.375Z,66.70
2022-12-04T01:57:20.311Z,69.30
2022-12-04T02:00:23.283Z,63.80
2022-12-04T02:02:51.393Z,64.50
2022-12-04T02:05:21.004Z,66.80
2022-12-04T02:10:24.462Z,65.60
2022-12-04T02:13:11.473Z,68.30
2022-12-04T02:16:01.144Z,64.90
2022-12-04T02:18:45.640Z,67.40
2022-12-04T02:21:19.152Z,68.90
2022-12-04T02:24:13.791Z,62.30
2022-12-04T02:26:47.903Z,69.10
2022-12-04T02:29:23.421Z,67.60
2022-12-04T02:31:58.902Z,70.30
2022-12-04T02:34:30.892Z,68.80
2022-12-04T02:37:08.263Z,69.30
2022-12-04T02:40:02.941Z,69.30
2022-12-04T02:42:40.842Z,59.20
2022-12-04T02:45:20.164Z,63.70
2022-12-04T02:47:48.304Z,68.50
2022-12-04T02:50:19.401Z,64.30
2022-12-04T02:53:01.835Z,66.00
2022-12-04T02:55:35.994Z,67.20
2022-12-04T02:58:14.272Z,68.10
2022-12-04T03:00:45.203Z,72.10
2022-12-04T03:03:19.961Z,66.80
2022-12-04T03:05:59.838Z,66.00
2022-12-04T03:08:37.387Z,64.10
2022-12-04T03:11:05.617Z,65.40
2022-12-04T03:13:39.931Z,66.90
2022-12-04T03:16:23.662Z,63.40
2022-12-04T03:18:59.342Z,62.70
2022-12-04T03:21:32.150Z,55.60
2022-12-04T03:24:09.152Z,64.20
2022-12-04T03:26:43.820Z,63.60
2022-12-04T03:29:35.988Z,54.70
2022-12-04T03:32:11.730Z,64.40
2022-12-04T03:35:02.888Z,61.50
2022-12-04T03:37:33.921Z,59.90
2022-12-04T03:40:08.947Z,67.20
2022-12-04T03:42:48.835Z,65.10
2022-12-04T03:45:22.375Z,59.40
2022-12-04T03:47:56.869Z,70.00
2022-12-04T03:50:38.056Z,67.10
2022-12-04T03:53:21.178Z,62.10
2022-12-04T03:55:57.290Z,62.50
2022-12-04T03:58:30.452Z,66.30
2022-12-04T04:01:04.169Z,60.10
2022-12-04T04:03:36.968Z,60.30
2022-12-04T04:06:11.067Z,67.10
2022-12-04T04:08:43.357Z,62.70
2022-12-04T04:11:18.346Z,63.20
2022-12-04T04:14:16.366Z,69.20
2022-12-04T04:17:08.326Z,57.70
2022-12-04T04:19:57.654Z,66.20
2022-12-04T04:25:17.096Z,66.20
2022-12-04T04:27:54.019Z,67.90
2022-12-04T04:30:22.237Z,63.80
2022-12-04T04:33:02.442Z,67.70
2022-12-04T04:35:49.224Z,65.80
2022-12-04T04:38:38.079Z,65.00
2022-12-04T04:41:19.642Z,58.90
2022-12-04T04:44:05.073Z,70.30
2022-12-04T04:46:37.957Z,60.70
2022-12-04T04:49:09.120Z,70.30
2022-12-04T04:51:37.641Z,70.70
2022-12-04T04:54:08.979Z,63.30
2022-12-04T04:56:42.068Z,60.00
2022-12-04T04:59:10.521Z,64.80
2022-12-04T05:01:39.702Z,60.90
2022-12-04T05:04:08.424Z,60.90
2022-12-04T05:06:36.347Z,62.20
2022-12-04T05:09:04.462Z,64.70
2022-12-04T05:11:32.526Z,75.20
2022-12-04T05:14:00.610Z,64.70
2022-12-04T05:16:28.651Z,60.10
2022-12-04T05:19:15.239Z,65.20
2022-12-04T05:21:43.382Z,64.30
2022-12-04T05:24:11.204Z,63.30
2022-12-04T05:26:39.179Z,66.20
2022-12-04T05:29:07.375Z,62.20
2022-12-04T05:31:37.883Z,65.40
2022-12-04T05:34:05.856Z,62.00
2022-12-04T05:36:33.815Z,63.20
2022-12-04T05:39:02.714Z,64.30
2022-12-04T05:41:30.524Z,62.30
2022-12-04T05:43:58.634Z,65.60
2022-12-04T05:46:27.645Z,58.00
2022-12-04T05:48:55.560Z,58.70
2022-12-04T05:51:24.049Z,60.00
2022-12-04T05:53:52.715Z,62.70
2022-12-04T05:56:20.804Z,69.80
2022-12-04T05:58:48.896Z,61.60
2022-12-04T06:01:19.566Z,61.00
2022-12-04T06:03:47.491Z,59.80
2022-12-04T06:06:21.758Z,62.40
2022-12-04T06:08:56.497Z,66.10
2022-12-04T06:11:28.316Z,64.70
2022-12-04T06:13:57.721Z,62.20
2022-12-04T06:16:32.391Z,59.60
2022-12-04T06:19:03.172Z,70.20
2022-12-04T06:21:33.874Z,70.10
2022-12-04T06:24:01.780Z,69.40
2022-12-04T06:26:30.080Z,70.20
2022-12-04T06:29:00.130Z,71.00
2022-12-04T06:31:29.927Z,69.80
2022-12-04T06:33:59.559Z,74.90
2022-12-04T06:36:27.715Z,74.10
2022-12-04T06:38:56.948Z,76.40
2022-12-04T06:43:53.767Z,64.20
2022-12-04T06:46:27.617Z,70.90
2022-12-04T06:48:57.529Z,70.90
2022-12-04T06:51:31.841Z,77.10
2022-12-04T06:54:00.422Z,68.20
2022-12-04T06:56:30.920Z,63.30
2022-12-04T06:59:01.641Z,69.40
2022-12-04T07:01:32.848Z,79.80
2022-12-04T07:04:04.039Z,78.40
2022-12-04T07:06:35.850Z,72.70
2022-12-04T07:09:14.589Z,68.00
2022-12-04T07:11:45.292Z,75.00
2022-12-04T07:14:13.606Z,72.80
2022-12-04T07:16:43.127Z,71.20
2022-12-04T07:19:13.959Z,70.20
2022-12-04T07:21:43.032Z,63.30
2022-12-04T07:24:16.794Z,69.80
2022-12-04T07:26:45.134Z,70.30
2022-12-04T07:29:14.650Z,68.80
2022-12-04T07:31:44.443Z,66.40
2022-12-04T07:34:13.865Z,68.40
2022-12-04T07:36:41.704Z,72.60
2022-12-04T07:39:09.866Z,69.10
2022-12-04T07:41:38.209Z,69.50
2022-12-04T07:44:09.086Z,71.80
2022-12-04T07:46:37.553Z,70.50
2022-12-04T07:49:05.824Z,62.20
2022-12-04T07:51:33.580Z,65.50
2022-12-04T07:54:04.060Z,67.20
2022-12-04T07:56:33.572Z,65.70
2022-12-04T07:59:03.114Z,65.90
2022-12-04T08:04:01.062Z,69.50
2022-12-04T08:06:29.925Z,69.00
2022-12-04T08:08:57.920Z,62.40
2022-12-04T08:11:28.274Z,65.40
2022-12-04T08:13:58.164Z,68.00
2022-12-04T08:16:27.064Z,62.50
2022-12-04T08:18:57.315Z,67.70
2022-12-04T08:21:27.964Z,66.30
2022-12-04T08:23:57.980Z,63.70
2022-12-04T08:26:28.972Z,61.20
2022-12-04T08:28:57.768Z,64.40
2022-12-04T08:31:28.010Z,69.00
2022-12-04T08:33:58.824Z,65.20
2022-12-04T08:36:27.013Z,61.20
2022-12-04T08:38:55.686Z,69.10
2022-12-04T08:41:26.381Z,63.70
2022-12-04T08:43:55.955Z,67.30
2022-12-04T08:46:25.849Z,63.50
2022-12-04T08:48:54.630Z,66.20
2022-12-04T08:51:25.944Z,66.30
2022-12-04T08:53:58.800Z,56.20
2022-12-04T08:56:29.862Z,64.10
2022-12-04T08:59:00.991Z,64.50
2022-12-04T09:01:30.086Z,59.90
2022-12-04T09:03:58.177Z,68.40
2022-12-04T09:06:26.327Z,65.70
2022-12-04T09:08:57.567Z,71.90
2022-12-04T09:11:27.745Z,59.50
2022-12-04T09:13:55.973Z,68.00
2022-12-04T09:16:25.569Z,61.70
2022-12-04T09:18:55.612Z,62.60
2022-12-04T09:21:25.498Z,63.00
2022-12-04T09:23:53.464Z,58.40
2022-12-04T09:26:24.576Z,64.30
2022-12-04T09:28:53.531Z,57.70
2022-12-04T09:31:23.951Z,61.80
2022-12-04T09:33:52.240Z,60.50
2022-12-04T09:36:20.825Z,60.20
2022-12-04T09:38:51.400Z,60.80
2022-12-04T09:41:25.140Z,57.90
2022-12-04T09:44:23.083Z,56.10
2022-12-04T09:46:55.300Z,57.30
2022-12-04T09:49:34.479Z,50.90
2022-12-04T09:52:09.012Z,50.70
2022-12-04T09:54:43.627Z,50.10
2022-12-04T09:57:27.842Z,51.80
2022-12-04T09:59:56.955Z,54.90
2022-12-04T10:02:35.230Z,52.50
2022-12-04T10:05:04.763Z,52.90
2022-12-04T10:07:41.928Z,49.90
2022-12-04T10:10:39.872Z,51.40
2022-12-04T10:13:40.668Z,56.10
2022-12-04T10:16:37.446Z,56.20
2022-12-04T10:19:20.678Z,56.20
2022-12-04T10:22:27.140Z,52.90
2022-12-04T10:24:59.147Z,50.10
2022-12-04T10:27:49.123Z,57.50
2022-12-04T10:30:21.337Z,55.90
2022-12-04T10:33:11.957Z,50.20
2022-12-04T10:35:45.828Z,51.90
2022-12-04T10:38:21.446Z,52.50
2022-12-04T10:40:56.350Z,47.70
2022-12-04T10:43:45.328Z,54.80
2022-12-04T10:46:19.435Z,51.30
2022-12-04T10:48:52.448Z,55.00
2022-12-04T10:51:24.020Z,52.60
2022-12-04T10:53:52.087Z,52.20
2022-12-04T10:56:23.596Z,50.60
2022-12-04T10:59:04.128Z,51.20
2022-12-04T11:01:34.594Z,51.70
2022-12-04T11:04:19.850Z,54.00
2022-12-04T11:06:50.256Z,50.10
2022-12-04T11:09:24.591Z,51.40
2022-12-04T11:11:52.890Z,47.30
2022-12-04T11:14:23.192Z,53.80
2022-12-04T11:17:02.659Z,49.30
2022-12-04T11:19:32.712Z,49.90
2022-12-04T11:22:12.667Z,51.40
2022-12-04T11:24:49.489Z,50.50
2022-12-04T11:27:25.688Z,49.70
2022-12-04T11:29:54.760Z,43.70
2022-12-04T11:32:26.105Z,50.70
2022-12-04T11:34:57.890Z,50.70
2022-12-04T11:37:29.126Z,51.70
2022-12-04T11:40:00.886Z,45.50
2022-12-04T11:42:31.452Z,53.20
2022-12-04T11:45:01.996Z,47.30
2022-12-04T11:47:31.961Z,50.80
2022-12-04T11:50:12.490Z,47.50
2022-12-04T11:52:49.205Z,48.20
2022-12-04T11:55:36.230Z,48.40
2022-12-04T11:58:22.929Z,51.90
2022-12-04T12:01:19.939Z,47.40
2022-12-04T12:04:07.919Z,47.40
2022-12-04T12:06:52.606Z,47.20
2022-12-04T12:09:46.050Z,47.40
2022-12-04T12:12:39.106Z,44.10
2022-12-04T12:15:09.638Z,45.80
2022-12-04T12:17:50.408Z,43.50
2022-12-04T12:20:36.024Z,51.90
2022-12-04T12:23:52.044Z,49.30
2022-12-04T12:26:20.281Z,49.60
2022-12-04T12:28:59.806Z,45.60
2022-12-04T12:31:51.246Z,41.40
2022-12-04T12:34:32.798Z,48.70
2022-12-04T12:37:08.394Z,41.70
2022-12-04T12:39:43.973Z,45.10
2022-12-04T12:42:20.635Z,44.00
2022-12-04T12:45:17.099Z,41.70
2022-12-04T12:47:49.794Z,44.40
2022-12-04T12:50:24.619Z,46.70
2022-12-04T12:52:59.919Z,48.70
2022-12-04T12:55:36.272Z,47.20
2022-12-04T12:58:17.683Z,46.30
2022-12-04T13:01:16.434Z,49.00
2022-12-04T13:03:57.351Z,46.10
2022-12-04T13:06:33.643Z,51.20
2022-12-04T13:09:31.762Z,47.00
2022-12-04T13:12:06.242Z,46.40
2022-12-04T13:14:34.041Z,45.40
2022-12-04T13:17:33.982Z,48.50
2022-12-04T13:20:10.182Z,48.20
2022-12-04T13:23:23.513Z,43.30
2022-12-04T13:26:10.314Z,46.80
2022-12-04T13:29:02.741Z,44.60
2022-12-04T13:31:53.621Z,47.30
2022-12-04T13:34:40.717Z,45.10
2022-12-04T13:37:24.145Z,44.90
2022-12-04T13:40:01.036Z,43.80
2022-12-04T13:42:29.419Z,48.80
2022-12-04T13:45:03.115Z,48.80
2022-12-04T13:47:34.168Z,48.00
2022-12-04T13:50:27.319Z,50.00
2022-12-04T13:52:55.830Z,43.60
2022-12-04T13:55:33.534Z,49.90
2022-12-04T13:58:29.287Z,45.80
2022-12-04T14:01:23.444Z,50.20
2022-12-04T14:03:59.406Z,47.20
2022-12-04T14:06:38.281Z,49.70
2022-12-04T14:09:18.520Z,49.20
2022-12-04T14:11:51.209Z,47.60
2022-12-04T14:14:29.467Z,54.70
2022-12-04T14:16:59.481Z,52.50
2022-12-04T14:19:40.973Z,54.70
2022-12-04T14:22:26.423Z,49.80
2022-12-04T14:25:05.713Z,49.60
2022-12-04T14:27:42.783Z,44.30
2022-12-04T14:30:29.787Z,50.30
2022-12-04T14:33:17.889Z,49.10
2022-12-04T14:36:03.040Z,50.50
2022-12-04T14:38:33.084Z,57.60
2022-12-04T14:41:01.780Z,52.30
2022-12-04T14:43:39.696Z,56.50
2022-12-04T14:46:26.520Z,55.40
2022-12-04T14:49:18.570Z,58.40
2022-12-04T14:52:23.922Z,58.30
2022-12-04T14:55:11.851Z,49.40
2022-12-04T14:58:21.731Z,56.50
2022-12-04T15:00:54.951Z,54.60
2022-12-04T15:03:23.799Z,55.30
2022-12-04T15:06:01.095Z,56.50
2022-12-04T15:08:29.182Z,58.60
2022-12-04T15:11:16.090Z,58.20
2022-12-04T15:13:44.145Z,55.80
2022-12-04T15:16:23.347Z,55.50
2022-12-04T15:19:01.549Z,58.20
2022-12-04T15:21:40.905Z,56.40
2022-12-04T15:24:20.281Z,54.00
2022-12-04T15:26:49.296Z,52.30
2022-12-04T15:31:57.057Z,54.20
2022-12-04T15:34:38.676Z,52.00
2022-12-04T15:37:14.037Z,48.70
2022-12-04T15:39:42.344Z,48.00
2022-12-04T15:42:20.823Z,52.00
2022-12-04T15:44:52.416Z,43.50
2022-12-04T15:47:25.789Z,51.90
2022-12-04T15:49:54.177Z,44.90
2022-12-04T15:52:24.924Z,48.80
2022-12-04T15:55:01.686Z,42.50
2022-12-04T15:57:34.061Z,51.40
2022-12-04T16:00:05.484Z,48.80
2022-12-04T16:02:37.237Z,45.90
2022-12-04T16:05:20.229Z,48.80
2022-12-04T16:07:57.696Z,168.80
2022-12-04T16:10:35.835Z,44.00
2022-12-04T16:13:05.606Z,51.10
2022-12-04T16:15:44.085Z,45.60
2022-12-04T16:18:14.070Z,49.90
2022-12-04T16:20:41.971Z,47.40
2022-12-04T16:23:09.992Z,45.50
2022-12-04T16:25:37.785Z,40.20
2022-12-04T16:28:05.506Z,40.20
2022-12-04T16:30:35.940Z,36.90
2022-12-04T16:33:04.977Z,40.30
2022-12-04T16:35:32.821Z,35.60
2022-12-04T16:38:00.751Z,41.50
2022-12-04T16:40:29.249Z,37.50
2022-12-04T16:42:57.261Z,38.40
2022-12-04T16:45:32.732Z,41.10
2022-12-04T16:48:00.791Z,36.40
2022-12-04T16:50:28.587Z,38.60
2022-12-04T16:52:58.352Z,37.90
2022-12-04T16:55:39.012Z,38.50
2022-12-04T16:58:08.294Z,38.60
2022-12-04T17:00:36.582Z,39.00
2022-12-04T17:03:04.889Z,40.50
2022-12-04T17:05:35.914Z,40.20
2022-12-04T17:08:03.936Z,41.40
2022-12-04T17:10:33.254Z,40.40
2022-12-04T17:13:01.075Z,41.40
2022-12-04T17:15:29.100Z,41.80
2022-12-04T17:17:57.080Z,38.90
2022-12-04T17:20:25.133Z,44.20
2022-12-04T17:22:52.992Z,41.40
2022-12-04T17:25:21.006Z,45.60
2022-12-04T17:27:49.082Z,40.40
2022-12-04T17:30:17.332Z,42.90
2022-12-04T17:32:46.582Z,42.00
2022-12-04T17:35:14.982Z,44.20
2022-12-04T17:37:43.328Z,42.80
2022-12-04T17:40:14.094Z,44.60
2022-12-04T17:42:42.671Z,39.70
2022-12-04T17:45:11.605Z,43.90
2022-12-04T17:47:39.610Z,46.60
2022-12-04T17:50:07.905Z,45.60
2022-12-04T17:52:38.666Z,44.40
2022-12-04T17:55:08.880Z,50.20
2022-12-04T17:57:37.120Z,50.40
2022-12-04T18:00:07.820Z,44.50
2022-12-04T18:02:41.684Z,46.50
2022-12-04T18:07:37.747Z,46.60
2022-12-04T18:10:06.801Z,45.70
2022-12-04T18:12:35.053Z,45.90
2022-12-04T18:15:03.800Z,45.00
2022-12-04T18:17:32.408Z,47.50
2022-12-04T18:20:04.605Z,46.30
2022-12-04T18:22:33.892Z,43.90
2022-12-04T18:25:03.621Z,43.40
2022-12-04T18:27:33.532Z,43.20
2022-12-04T18:30:04.036Z,43.00
2022-12-04T18:32:31.897Z,41.00
2022-12-04T18:34:59.921Z,40.60
2022-12-04T18:37:28.316Z,44.40
2022-12-04T18:39:56.748Z,47.00
2022-12-04T18:42:25.961Z,47.40
2022-12-04T18:44:54.409Z,46.50
2022-12-04T18:47:22.670Z,52.80
2022-12-04T18:49:51.167Z,48.50
2022-12-04T18:52:19.343Z,49.70
2022-12-04T18:54:47.669Z,47.70
2022-12-04T18:57:15.399Z,51.80
2022-12-04T18:59:43.598Z,50.50
2022-12-04T19:02:11.406Z,50.50
2022-12-04T19:04:39.261Z,49.60
2022-12-04T19:07:07.501Z,49.60
2022-12-04T19:10:09.473Z,51.90
2022-12-04T19:12:23.358Z,49.30
2022-12-04T19:14:52.516Z,49.90
2022-12-04T19:17:20.921Z,49.50
2022-12-04T19:19:49.239Z,50.80
2022-12-04T19:22:17.043Z,52.40
2022-12-04T19:24:44.848Z,54.90
2022-12-04T19:27:13.469Z,52.50
2022-12-04T19:29:43.402Z,49.70
2022-12-04T19:32:11.889Z,53.20
2022-12-04T19:34:41.399Z,47.10
2022-12-04T19:37:10.672Z,54.70
2022-12-04T19:39:38.727Z,52.50
2022-12-04T19:42:07.563Z,54.90
2022-12-04T19:44:51.460Z,55.50
2022-12-04T19:47:19.743Z,57.80
2022-12-04T19:49:48.981Z,54.60
2022-12-04T19:52:17.245Z,56.70
2022-12-04T19:54:45.631Z,64.20
2022-12-04T19:57:14.848Z,69.00
2022-12-04T19:59:57.361Z,59.80
2022-12-04T20:02:26.122Z,62.90
2022-12-04T20:04:54.734Z,60.10
2022-12-04T20:07:22.497Z,64.90
2022-12-04T20:09:54.525Z,69.50
2022-12-04T20:12:22.253Z,63.40
2022-12-04T20:14:49.965Z,65.60
2022-12-04T20:17:18.130Z,62.30
2022-12-04T20:19:45.910Z,63.20
2022-12-04T20:22:13.718Z,62.40
2022-12-04T20:24:41.934Z,54.00
2022-12-04T20:27:10.290Z,54.30
2022-12-04T20:29:38.120Z,49.80
2022-12-04T20:32:06.403Z,53.40
2022-12-04T20:34:37.600Z,54.30
2022-12-04T20:37:10.424Z,54.70
2022-12-04T20:39:38.411Z,54.90
2022-12-04T20:42:06.127Z,51.50
2022-12-04T20:44:34.436Z,56.20
2022-12-04T20:47:02.094Z,55.90
2022-12-04T20:49:29.941Z,62.80
2022-12-04T20:51:58.201Z,57.30
2022-12-04T20:54:25.945Z,55.00
2022-12-04T20:56:53.723Z,54.40
2022-12-04T20:59:24.018Z,56.20
2022-12-04T21:01:52.826Z,56.80
2022-12-04T21:04:23.763Z,62.80
2022-12-04T21:06:52.117Z,53.10
2022-12-04T21:09:23.156Z,62.00
2022-12-04T21:11:54.282Z,61.50
2022-12-04T21:14:44.557Z,59.40
2022-12-04T21:17:19.144Z,62.20
2022-12-04T21:19:49.933Z,60.20
2022-12-04T21:22:19.326Z,60.30
2022-12-04T21:27:20.788Z,66.00
2022-12-04T21:29:49.939Z,59.70
2022-12-04T21:32:19.137Z,66.80
2022-12-04T21:34:47.487Z,70.30
2022-12-04T21:37:15.621Z,68.30
2022-12-04T21:39:43.853Z,67.60
2022-12-04T21:42:30.085Z,74.40
2022-12-04T21:45:02.085Z,78.00
2022-12-04T21:47:31.145Z,74.30
2022-12-04T21:49:59.768Z,76.20
2022-12-04T21:52:32.376Z,71.30
2022-12-04T21:55:00.845Z,70.60
2022-12-04T21:57:29.193Z,66.60
2022-12-04T21:59:57.591Z,73.30
2022-12-04T22:02:29.002Z,71.40
2022-12-04T22:04:56.893Z,71.60
2022-12-04T22:07:24.824Z,78.30
2022-12-04T22:09:53.084Z,79.30
2022-12-04T22:12:47.817Z,78.10
2022-12-04T22:15:09.871Z,80.40
2022-12-04T22:17:37.606Z,72.80
2022-12-04T22:20:06.105Z,77.40
2022-12-04T22:22:35.498Z,79.60
2022-12-04T22:25:04.653Z,78.80
2022-12-04T22:27:32.376Z,74.10
2022-12-04T22:30:00.789Z,75.50
2022-12-04T22:32:28.643Z,73.60
2022-12-04T22:34:56.352Z,66.00
2022-12-04T22:37:24.961Z,68.00
2022-12-04T22:39:52.971Z,72.60
2022-12-04T22:42:20.977Z,72.20
2022-12-04T22:44:49.246Z,70.20
2022-12-04T22:47:17.009Z,65.40
2022-12-04T22:49:44.857Z,71.60
2022-12-04T22:52:13.033Z,70.40
2022-12-04T22:54:41.360Z,68.40
2022-12-04T22:57:09.373Z,75.00
2022-12-04T22:59:39.005Z,61.10
2022-12-04T23:02:06.943Z,54.00
2022-12-04T23:04:34.752Z,64.70
2022-12-04T23:07:03.480Z,64.40
2022-12-04T23:09:31.841Z,62.80
2022-12-04T23:11:59.570Z,69.70
2022-12-04T23:14:29.125Z,66.70
2022-12-04T23:19:24.881Z,65.80
2022-12-04T23:21:56.820Z,65.70
2022-12-04T23:24:25.475Z,65.40
2022-12-04T23:26:53.603Z,67.40
2022-12-04T23:29:52.078Z,62.00
2022-12-04T23:32:09.468Z,62.60
2022-12-04T23:34:37.265Z,66.60
2022-12-04T23:37:04.985Z,61.40
2022-12-04T23:39:33.224Z,61.50
2022-12-04T23:42:03.009Z,65.20
2022-12-04T23:44:30.710Z,65.30
2022-12-04T23:46:59.137Z,60.90
2022-12-04T23:49:27.487Z,63.50
2022-12-04T23:51:55.232Z,66.50
2022-12-04T23:54:23.235Z,63.50
2022-12-04T23:56:51.189Z,64.90
2022-12-04T23:59:22.015Z,61.60
